sensor_id;sensor_type;location;lat;lon;timestamp;temperature;humidity
44435;DHT22;30138;20.964;105.830;2023-09-19T00:03:28;29.70;99.90
44435;DHT22;30138;20.964;105.830;2023-09-19T00:20:17;29.70;99.90
44435;DHT22;30138;20.964;105.830;2023-09-19T00:25:25;29.70;99.90
44435;DHT22;30138;20.964;105.830;2023-09-19T00:30:31;29.70;99.90
44435;DHT22;30138;20.964;105.830;2023-09-19T00:42:00;29.70;99.90
44435;DHT22;30138;20.964;105.830;2023-09-19T00:47:23;29.70;99.90
44435;DHT22;30138;20.964;105.830;2023-09-19T01:03:55;29.80;99.90
44435;DHT22;30138;20.964;105.830;2023-09-19T01:09:04;29.80;99.90
44435;DHT22;30138;20.964;105.830;2023-09-19T01:14:20;29.80;99.90
44435;DHT22;30138;20.964;105.830;2023-09-19T01:26:01;29.80;99.90
44435;DHT22;30138;20.964;105.830;2023-09-19T01:31:14;29.90;99.90
44435;DHT22;30138;20.964;105.830;2023-09-19T01:36:58;29.90;99.90
44435;DHT22;30138;20.964;105.830;2023-09-19T01:42:08;29.90;99.90
44435;DHT22;30138;20.964;105.830;2023-09-19T01:47:41;29.90;99.90
44435;DHT22;30138;20.964;105.830;2023-09-19T01:52:56;29.90;99.90
44435;DHT22;30138;20.964;105.830;2023-09-19T02:09:13;30.00;99.90
44435;DHT22;30138;20.964;105.830;2023-09-19T02:20:39;30.00;99.90
44435;DHT22;30138;20.964;105.830;2023-09-19T02:31:45;30.00;99.90
44435;DHT22;30138;20.964;105.830;2023-09-19T02:36:55;30.10;99.90
44435;DHT22;30138;20.964;105.830;2023-09-19T02:42:01;30.10;99.90
44435;DHT22;30138;20.964;105.830;2023-09-19T02:47:08;30.10;99.90
44435;DHT22;30138;20.964;105.830;2023-09-19T02:57:58;30.10;99.90
44435;DHT22;30138;20.964;105.830;2023-09-19T03:03:22;30.10;99.90
44435;DHT22;30138;20.964;105.830;2023-09-19T03:08:34;30.10;99.90
44435;DHT22;30138;20.964;105.830;2023-09-19T03:14:17;30.20;99.90
44435;DHT22;30138;20.964;105.830;2023-09-19T03:26:01;30.20;99.90
44435;DHT22;30138;20.964;105.830;2023-09-19T03:31:27;30.20;99.90
44435;DHT22;30138;20.964;105.830;2023-09-19T03:36:36;30.20;99.90
44435;DHT22;30138;20.964;105.830;2023-09-19T03:42:20;30.30;99.90
44435;DHT22;30138;20.964;105.830;2023-09-19T03:47:29;30.30;99.90
44435;DHT22;30138;20.964;105.830;2023-09-19T03:52:38;30.30;99.90
44435;DHT22;30138;20.964;105.830;2023-09-19T04:03:15;30.30;99.90
44435;DHT22;30138;20.964;105.830;2023-09-19T04:08:38;30.30;99.90
44435;DHT22;30138;20.964;105.830;2023-09-19T04:13:46;30.30;99.90
44435;DHT22;30138;20.964;105.830;2023-09-19T04:18:53;30.30;99.90
44435;DHT22;30138;20.964;105.830;2023-09-19T04:24:15;30.30;99.90
44435;DHT22;30138;20.964;105.830;2023-09-19T04:29:40;30.40;99.90
44435;DHT22;30138;20.964;105.830;2023-09-19T04:40:29;30.40;99.90
44435;DHT22;30138;20.964;105.830;2023-09-19T04:45:39;30.40;99.90
44435;DHT22;30138;20.964;105.830;2023-09-19T04:50:45;30.50;99.90
44435;DHT22;30138;20.964;105.830;2023-09-19T04:55:55;30.50;99.90
44435;DHT22;30138;20.964;105.830;2023-09-19T05:12:26;30.50;99.90
44435;DHT22;30138;20.964;105.830;2023-09-19T05:18:07;30.60;99.90
44435;DHT22;30138;20.964;105.830;2023-09-19T05:23:47;30.60;99.90
44435;DHT22;30138;20.964;105.830;2023-09-19T05:28:55;30.60;99.90
44435;DHT22;30138;20.964;105.830;2023-09-19T05:34:39;30.60;99.90
44435;DHT22;30138;20.964;105.830;2023-09-19T05:45:45;30.70;99.90
44435;DHT22;30138;20.964;105.830;2023-09-19T05:51:11;30.70;99.90
44435;DHT22;30138;20.964;105.830;2023-09-19T05:56:35;30.70;99.90
44435;DHT22;30138;20.964;105.830;2023-09-19T06:01:59;30.70;99.90
44435;DHT22;30138;20.964;105.830;2023-09-19T06:07:10;30.80;99.90
44435;DHT22;30138;20.964;105.830;2023-09-19T06:12:39;30.80;99.90
44435;DHT22;30138;20.964;105.830;2023-09-19T06:29:29;30.80;99.90
44435;DHT22;30138;20.964;105.830;2023-09-19T06:34:36;30.80;99.90
44435;DHT22;30138;20.964;105.830;2023-09-19T06:50:45;30.90;99.90
44435;DHT22;30138;20.964;105.830;2023-09-19T06:56:11;30.90;99.90
44435;DHT22;30138;20.964;105.830;2023-09-19T07:01:17;30.90;99.90
44435;DHT22;30138;20.964;105.830;2023-09-19T07:06:25;30.90;99.90
44435;DHT22;30138;20.964;105.830;2023-09-19T07:17:49;31.00;99.90
44435;DHT22;30138;20.964;105.830;2023-09-19T07:28:23;31.00;99.90
44435;DHT22;30138;20.964;105.830;2023-09-19T07:33:28;31.10;99.90
44435;DHT22;30138;20.964;105.830;2023-09-19T07:38:53;31.10;99.90
44435;DHT22;30138;20.964;105.830;2023-09-19T07:44:19;31.10;99.90
44435;DHT22;30138;20.964;105.830;2023-09-19T07:49:46;31.10;99.90
44435;DHT22;30138;20.964;105.830;2023-09-19T07:54:52;31.10;99.90
44435;DHT22;30138;20.964;105.830;2023-09-19T08:00:03;31.20;99.90
44435;DHT22;30138;20.964;105.830;2023-09-19T08:05:30;31.20;99.90
44435;DHT22;30138;20.964;105.830;2023-09-19T08:10:37;31.20;99.90
44435;DHT22;30138;20.964;105.830;2023-09-19T08:16:37;31.20;99.90
44435;DHT22;30138;20.964;105.830;2023-09-19T08:22:02;31.20;99.90
44435;DHT22;30138;20.964;105.830;2023-09-19T08:27:27;31.20;99.90
44435;DHT22;30138;20.964;105.830;2023-09-19T08:32:52;31.20;99.90
44435;DHT22;30138;20.964;105.830;2023-09-19T08:38:02;31.30;99.90
44435;DHT22;30138;20.964;105.830;2023-09-19T08:43:44;31.30;99.90
44435;DHT22;30138;20.964;105.830;2023-09-19T08:49:36;31.30;99.90
44435;DHT22;30138;20.964;105.830;2023-09-19T08:55:23;31.30;99.90
44435;DHT22;30138;20.964;105.830;2023-09-19T09:00:51;31.40;99.90
44435;DHT22;30138;20.964;105.830;2023-09-19T09:06:36;31.40;99.90
44435;DHT22;30138;20.964;105.830;2023-09-19T09:12:00;31.40;99.90
44435;DHT22;30138;20.964;105.830;2023-09-19T09:17:25;31.40;99.90
44435;DHT22;30138;20.964;105.830;2023-09-19T09:28:32;31.40;99.90
44435;DHT22;30138;20.964;105.830;2023-09-19T09:34:15;31.40;99.90
44435;DHT22;30138;20.964;105.830;2023-09-19T09:39:33;31.50;99.90
44435;DHT22;30138;20.964;105.830;2023-09-19T09:44:39;31.50;99.90
44435;DHT22;30138;20.964;105.830;2023-09-19T09:55:21;31.50;99.90
44435;DHT22;30138;20.964;105.830;2023-09-19T10:00:27;31.50;99.90
44435;DHT22;30138;20.964;105.830;2023-09-19T10:05:45;31.50;99.90
44435;DHT22;30138;20.964;105.830;2023-09-19T10:11:17;31.50;99.90
44435;DHT22;30138;20.964;105.830;2023-09-19T10:16:32;31.50;99.90
44435;DHT22;30138;20.964;105.830;2023-09-19T10:21:38;31.50;99.90
44435;DHT22;30138;20.964;105.830;2023-09-19T10:27:05;31.50;99.90
44435;DHT22;30138;20.964;105.830;2023-09-19T10:32:30;31.50;99.90
44435;DHT22;30138;20.964;105.830;2023-09-19T10:37:38;31.50;99.90
44435;DHT22;30138;20.964;105.830;2023-09-19T10:42:49;31.50;99.90
44435;DHT22;30138;20.964;105.830;2023-09-19T10:47:55;31.50;99.90
44435;DHT22;30138;20.964;105.830;2023-09-19T10:53:04;31.50;99.90
44435;DHT22;30138;20.964;105.830;2023-09-19T10:58:28;31.50;99.90
44435;DHT22;30138;20.964;105.830;2023-09-19T11:04:23;31.50;99.90
44435;DHT22;30138;20.964;105.830;2023-09-19T11:09:52;31.50;99.90
44435;DHT22;30138;20.964;105.830;2023-09-19T11:21:53;31.50;99.90
44435;DHT22;30138;20.964;105.830;2023-09-19T11:27:17;31.50;99.90
44435;DHT22;30138;20.964;105.830;2023-09-19T11:38:58;31.50;99.90
44435;DHT22;30138;20.964;105.830;2023-09-19T11:44:33;31.50;99.90
44435;DHT22;30138;20.964;105.830;2023-09-19T12:01:50;31.50;99.90
44435;DHT22;30138;20.964;105.830;2023-09-19T12:12:47;31.50;99.90
44435;DHT22;30138;20.964;105.830;2023-09-19T12:29:16;31.50;99.90
44435;DHT22;30138;20.964;105.830;2023-09-19T12:34:41;31.50;99.90
44435;DHT22;30138;20.964;105.830;2023-09-19T12:45:36;31.50;99.90
44435;DHT22;30138;20.964;105.830;2023-09-19T12:56:27;31.50;99.90
44435;DHT22;30138;20.964;105.830;2023-09-19T13:01:50;31.50;99.90
44435;DHT22;30138;20.964;105.830;2023-09-19T13:07:42;31.50;99.90
44435;DHT22;30138;20.964;105.830;2023-09-19T13:12:51;31.40;99.90
44435;DHT22;30138;20.964;105.830;2023-09-19T13:18:40;31.50;99.90
44435;DHT22;30138;20.964;105.830;2023-09-19T13:24:24;31.40;99.90
44435;DHT22;30138;20.964;105.830;2023-09-19T13:29:32;31.50;99.90
44435;DHT22;30138;20.964;105.830;2023-09-19T13:40:34;31.40;99.90
44435;DHT22;30138;20.964;105.830;2023-09-19T13:45:43;31.40;99.90
44435;DHT22;30138;20.964;105.830;2023-09-19T13:50:50;31.40;99.90
44435;DHT22;30138;20.964;105.830;2023-09-19T13:55:56;31.40;99.90
44435;DHT22;30138;20.964;105.830;2023-09-19T14:06:27;31.40;99.90
44435;DHT22;30138;20.964;105.830;2023-09-19T14:11:36;31.40;99.90
44435;DHT22;30138;20.964;105.830;2023-09-19T14:16:44;31.40;99.90
44435;DHT22;30138;20.964;105.830;2023-09-19T14:21:51;31.40;99.90
44435;DHT22;30138;20.964;105.830;2023-09-19T14:27:00;31.40;99.90
44435;DHT22;30138;20.964;105.830;2023-09-19T14:32:08;31.40;99.90
44435;DHT22;30138;20.964;105.830;2023-09-19T14:37:15;31.40;99.90
44435;DHT22;30138;20.964;105.830;2023-09-19T14:42:22;31.30;99.90
44435;DHT22;30138;20.964;105.830;2023-09-19T14:47:31;31.30;99.90
44435;DHT22;30138;20.964;105.830;2023-09-19T14:52:38;31.30;99.90
44435;DHT22;30138;20.964;105.830;2023-09-19T14:57:44;31.30;99.90
44435;DHT22;30138;20.964;105.830;2023-09-19T15:02:58;31.30;99.90
44435;DHT22;30138;20.964;105.830;2023-09-19T15:08:05;31.30;99.90
44435;DHT22;30138;20.964;105.830;2023-09-19T15:13:11;31.30;99.90
44435;DHT22;30138;20.964;105.830;2023-09-19T15:18:19;31.30;99.90
44435;DHT22;30138;20.964;105.830;2023-09-19T15:23:25;31.30;99.90
44435;DHT22;30138;20.964;105.830;2023-09-19T15:28:32;31.30;99.90
44435;DHT22;30138;20.964;105.830;2023-09-19T15:33:40;31.30;99.90
44435;DHT22;30138;20.964;105.830;2023-09-19T15:39:04;31.30;99.90
44435;DHT22;30138;20.964;105.830;2023-09-19T15:44:15;31.30;99.90
44435;DHT22;30138;20.964;105.830;2023-09-19T15:49:24;31.20;99.90
44435;DHT22;30138;20.964;105.830;2023-09-19T15:54:30;31.30;99.90
44435;DHT22;30138;20.964;105.830;2023-09-19T15:59:36;31.30;99.90
44435;DHT22;30138;20.964;105.830;2023-09-19T16:04:45;31.20;99.90
44435;DHT22;30138;20.964;105.830;2023-09-19T16:09:51;31.20;99.90
44435;DHT22;30138;20.964;105.830;2023-09-19T16:14:57;31.20;99.90
44435;DHT22;30138;20.964;105.830;2023-09-19T16:20:07;31.30;99.90
44435;DHT22;30138;20.964;105.830;2023-09-19T16:25:14;31.20;99.90
44435;DHT22;30138;20.964;105.830;2023-09-19T16:30:21;31.20;99.90
44435;DHT22;30138;20.964;105.830;2023-09-19T16:35:29;31.20;99.90
44435;DHT22;30138;20.964;105.830;2023-09-19T16:40:36;31.20;99.90
44435;DHT22;30138;20.964;105.830;2023-09-19T16:45:53;31.20;99.90
44435;DHT22;30138;20.964;105.830;2023-09-19T16:51:03;31.20;99.90
44435;DHT22;30138;20.964;105.830;2023-09-19T16:56:12;31.20;99.90
44435;DHT22;30138;20.964;105.830;2023-09-19T17:01:21;31.20;99.90
44435;DHT22;30138;20.964;105.830;2023-09-19T17:06:28;31.20;99.90
44435;DHT22;30138;20.964;105.830;2023-09-19T17:11:34;31.20;99.90
44435;DHT22;30138;20.964;105.830;2023-09-19T17:16:41;31.20;99.90
44435;DHT22;30138;20.964;105.830;2023-09-19T17:21:49;31.20;99.90
44435;DHT22;30138;20.964;105.830;2023-09-19T17:26:55;31.20;99.90
44435;DHT22;30138;20.964;105.830;2023-09-19T17:32:03;31.10;99.90
44435;DHT22;30138;20.964;105.830;2023-09-19T17:37:11;31.20;99.90
44435;DHT22;30138;20.964;105.830;2023-09-19T17:42:17;31.20;99.90
44435;DHT22;30138;20.964;105.830;2023-09-19T17:47:23;31.20;99.90
44435;DHT22;30138;20.964;105.830;2023-09-19T17:52:32;31.20;99.90
44435;DHT22;30138;20.964;105.830;2023-09-19T17:57:38;31.10;99.90
44435;DHT22;30138;20.964;105.830;2023-09-19T18:02:44;31.20;99.90
44435;DHT22;30138;20.964;105.830;2023-09-19T18:07:53;31.10;99.90
44435;DHT22;30138;20.964;105.830;2023-09-19T18:12:59;31.10;99.90
44435;DHT22;30138;20.964;105.830;2023-09-19T18:18:05;31.10;99.90
44435;DHT22;30138;20.964;105.830;2023-09-19T18:23:15;31.10;99.90
44435;DHT22;30138;20.964;105.830;2023-09-19T18:28:21;31.10;99.90
44435;DHT22;30138;20.964;105.830;2023-09-19T18:33:28;31.10;99.90
44435;DHT22;30138;20.964;105.830;2023-09-19T18:38:40;31.10;99.90
44435;DHT22;30138;20.964;105.830;2023-09-19T18:43:47;31.10;99.90
44435;DHT22;30138;20.964;105.830;2023-09-19T18:48:53;31.00;99.90
44435;DHT22;30138;20.964;105.830;2023-09-19T18:54:02;31.10;99.90
44435;DHT22;30138;20.964;105.830;2023-09-19T18:59:08;31.10;99.90
44435;DHT22;30138;20.964;105.830;2023-09-19T19:04:16;31.10;99.90
44435;DHT22;30138;20.964;105.830;2023-09-19T19:09:25;31.00;99.90
44435;DHT22;30138;20.964;105.830;2023-09-19T19:14:30;31.00;99.90
44435;DHT22;30138;20.964;105.830;2023-09-19T19:19:37;31.00;99.90
44435;DHT22;30138;20.964;105.830;2023-09-19T19:24:46;31.00;99.90
44435;DHT22;30138;20.964;105.830;2023-09-19T19:30:26;31.00;99.90
44435;DHT22;30138;20.964;105.830;2023-09-19T19:35:32;31.00;99.90
44435;DHT22;30138;20.964;105.830;2023-09-19T19:40:41;31.00;99.90
44435;DHT22;30138;20.964;105.830;2023-09-19T19:45:54;31.00;99.90
44435;DHT22;30138;20.964;105.830;2023-09-19T19:51:05;31.00;99.90
44435;DHT22;30138;20.964;105.830;2023-09-19T19:56:40;30.90;99.90
44435;DHT22;30138;20.964;105.830;2023-09-19T20:01:46;31.00;99.90
44435;DHT22;30138;20.964;105.830;2023-09-19T20:06:53;31.00;99.90
44435;DHT22;30138;20.964;105.830;2023-09-19T20:12:47;31.00;99.90
44435;DHT22;30138;20.964;105.830;2023-09-19T20:17:55;30.90;99.90
44435;DHT22;30138;20.964;105.830;2023-09-19T20:23:02;30.90;99.90
44435;DHT22;30138;20.964;105.830;2023-09-19T20:28:10;30.90;99.90
44435;DHT22;30138;20.964;105.830;2023-09-19T20:33:16;30.90;99.90
44435;DHT22;30138;20.964;105.830;2023-09-19T20:38:22;30.90;99.90
44435;DHT22;30138;20.964;105.830;2023-09-19T20:43:30;30.90;99.90
44435;DHT22;30138;20.964;105.830;2023-09-19T20:54:43;30.90;99.90
44435;DHT22;30138;20.964;105.830;2023-09-19T21:00:11;30.90;99.90
44435;DHT22;30138;20.964;105.830;2023-09-19T21:05:39;30.90;99.90
44435;DHT22;30138;20.964;105.830;2023-09-19T21:11:09;30.90;99.90
44435;DHT22;30138;20.964;105.830;2023-09-19T21:22:19;30.90;99.90
44435;DHT22;30138;20.964;105.830;2023-09-19T21:27:31;30.90;99.90
44435;DHT22;30138;20.964;105.830;2023-09-19T21:32:39;30.90;99.90
44435;DHT22;30138;20.964;105.830;2023-09-19T21:37:48;30.80;99.90
44435;DHT22;30138;20.964;105.830;2023-09-19T21:42:54;30.80;99.90
44435;DHT22;30138;20.964;105.830;2023-09-19T21:48:19;30.80;99.90
44435;DHT22;30138;20.964;105.830;2023-09-19T21:53:46;30.80;99.90
44435;DHT22;30138;20.964;105.830;2023-09-19T21:58:52;30.80;99.90
44435;DHT22;30138;20.964;105.830;2023-09-19T22:04:01;30.80;99.90
44435;DHT22;30138;20.964;105.830;2023-09-19T22:09:08;30.80;99.90
44435;DHT22;30138;20.964;105.830;2023-09-19T22:14:14;30.80;99.90
44435;DHT22;30138;20.964;105.830;2023-09-19T22:19:22;30.80;99.90
44435;DHT22;30138;20.964;105.830;2023-09-19T22:24:28;30.80;99.90
44435;DHT22;30138;20.964;105.830;2023-09-19T22:29:34;30.80;99.90
44435;DHT22;30138;20.964;105.830;2023-09-19T22:34:41;30.80;99.90
44435;DHT22;30138;20.964;105.830;2023-09-19T22:39:47;30.80;99.90
44435;DHT22;30138;20.964;105.830;2023-09-19T22:44:54;30.80;99.90
44435;DHT22;30138;20.964;105.830;2023-09-19T22:50:03;30.70;99.90
44435;DHT22;30138;20.964;105.830;2023-09-19T22:55:10;30.80;99.90
44435;DHT22;30138;20.964;105.830;2023-09-19T23:00:24;30.80;99.90
44435;DHT22;30138;20.964;105.830;2023-09-19T23:05:37;30.80;99.90
44435;DHT22;30138;20.964;105.830;2023-09-19T23:10:45;30.70;99.90
44435;DHT22;30138;20.964;105.830;2023-09-19T23:15:54;30.70;99.90
44435;DHT22;30138;20.964;105.830;2023-09-19T23:21:02;30.70;99.90
44435;DHT22;30138;20.964;105.830;2023-09-19T23:26:18;30.70;99.90
44435;DHT22;30138;20.964;105.830;2023-09-19T23:31:25;30.70;99.90
44435;DHT22;30138;20.964;105.830;2023-09-19T23:36:34;30.70;99.90
44435;DHT22;30138;20.964;105.830;2023-09-19T23:41:41;30.70;99.90
44435;DHT22;30138;20.964;105.830;2023-09-19T23:46:47;30.70;99.90
44435;DHT22;30138;20.964;105.830;2023-09-19T23:51:59;30.70;99.90
44435;DHT22;30138;20.964;105.830;2023-09-19T23:57:06;30.70;99.90
